createdAt,value
2022-12-29T00:02:19.165Z,71.47
2022-12-29T00:04:48.925Z,70.86
2022-12-29T00:07:16.845Z,70.70
2022-12-29T00:09:46.441Z,70.89
2022-12-29T00:12:14.368Z,70.96
2022-12-29T00:15:00.289Z,69.98
2022-12-29T00:17:28.541Z,69.83
2022-12-29T00:20:15.544Z,70.21
2022-12-29T00:23:03.479Z,70.05
2022-12-29T00:25:49.408Z,69.93
2022-12-29T00:28:35.000Z,70.12
2022-12-29T00:31:20.733Z,69.57
2022-12-29T00:34:06.436Z,69.55
2022-12-29T00:36:39.170Z,69.52
2022-12-29T00:39:27.884Z,69.22
2022-12-29T00:42:13.605Z,69.23
2022-12-29T00:44:41.581Z,69.13
2022-12-29T00:47:11.608Z,69.23
2022-12-29T00:49:39.354Z,69.19
2022-12-29T00:52:10.743Z,69.16
2022-12-29T00:54:40.156Z,69.23
2022-12-29T00:57:10.549Z,69.09
2022-12-29T00:59:39.473Z,69.28
2022-12-29T01:02:08.227Z,69.38
2022-12-29T01:04:36.848Z,69.52
2022-12-29T01:07:05.635Z,69.19
2022-12-29T01:09:52.680Z,69.23
2022-12-29T01:12:41.185Z,69.20
2022-12-29T01:15:13.704Z,69.87
2022-12-29T01:17:43.613Z,70.85
2022-12-29T01:20:12.678Z,71.47
2022-12-29T01:22:43.367Z,71.64
2022-12-29T01:25:12.850Z,72.36
2022-12-29T01:27:41.545Z,71.88
2022-12-29T01:30:10.682Z,72.05
2022-12-29T01:32:39.036Z,71.78
2022-12-29T01:35:07.497Z,72.45
2022-12-29T01:37:36.923Z,72.50
2022-12-29T01:40:05.627Z,73.09
2022-12-29T01:42:35.604Z,72.79
2022-12-29T01:45:05.164Z,73.18
2022-12-29T01:47:36.985Z,73.28
2022-12-29T01:50:07.645Z,73.53
2022-12-29T01:52:37.398Z,73.86
2022-12-29T01:55:07.420Z,74.13
2022-12-29T01:57:40.075Z,74.92
2022-12-29T02:00:10.400Z,76.23
2022-12-29T02:02:42.662Z,76.84
2022-12-29T02:05:18.093Z,77.37
2022-12-29T02:07:47.077Z,78.45
2022-12-29T02:10:15.545Z,78.31
2022-12-29T02:12:45.151Z,78.36
2022-12-29T02:15:13.156Z,79.18
2022-12-29T02:17:52.253Z,79.30
2022-12-29T02:20:48.232Z,80.50
2022-12-29T02:24:00.667Z,80.19
2022-12-29T02:26:50.781Z,80.10
2022-12-29T02:29:38.592Z,78.89
2022-12-29T02:32:10.309Z,78.46
2022-12-29T02:34:46.668Z,78.58
2022-12-29T02:37:22.212Z,78.00
2022-12-29T02:39:54.318Z,77.88
2022-12-29T02:42:25.250Z,78.21
2022-12-29T02:44:57.737Z,77.89
2022-12-29T02:47:32.264Z,78.15
2022-12-29T02:50:04.597Z,78.07
2022-12-29T02:52:36.215Z,78.50
2022-12-29T02:55:03.911Z,78.99
2022-12-29T02:57:34.836Z,78.51
2022-12-29T03:00:08.523Z,78.68
2022-12-29T03:02:50.210Z,79.13
2022-12-29T03:05:32.503Z,79.03
2022-12-29T03:08:06.537Z,78.50
2022-12-29T03:10:40.927Z,77.88
2022-12-29T03:13:32.413Z,77.85
2022-12-29T03:16:06.663Z,78.09
2022-12-29T03:18:41.791Z,78.97
2022-12-29T03:21:14.440Z,78.63
2022-12-29T03:23:48.405Z,78.40
2022-12-29T03:26:19.492Z,78.39
2022-12-29T03:28:50.847Z,78.56
2022-12-29T03:31:24.837Z,79.09
2022-12-29T03:33:57.676Z,78.62
2022-12-29T03:36:34.614Z,79.26
2022-12-29T03:39:06.055Z,78.80
2022-12-29T03:41:35.113Z,79.12
2022-12-29T03:44:04.859Z,79.95
2022-12-29T03:46:33.644Z,79.99
2022-12-29T03:49:03.560Z,79.78
2022-12-29T03:51:31.849Z,80.33
2022-12-29T03:53:59.896Z,79.81
2022-12-29T03:56:28.839Z,79.22
2022-12-29T03:58:56.815Z,79.02
2022-12-29T04:01:40.181Z,78.36
2022-12-29T04:04:10.535Z,78.09
2022-12-29T04:06:38.770Z,77.93
2022-12-29T04:09:08.664Z,78.12
2022-12-29T04:11:42.568Z,77.69
2022-12-29T04:14:10.621Z,77.79
2022-12-29T04:16:39.804Z,77.28
2022-12-29T04:19:10.157Z,77.32
2022-12-29T04:21:38.977Z,77.59
2022-12-29T04:24:08.311Z,77.42
2022-12-29T04:26:41.307Z,77.56
2022-12-29T04:29:29.521Z,77.50
2022-12-29T04:32:16.143Z,76.62
2022-12-29T04:34:50.766Z,76.69
2022-12-29T04:37:19.963Z,75.66
2022-12-29T04:39:48.115Z,75.97
2022-12-29T04:42:16.372Z,74.91
2022-12-29T04:44:45.499Z,74.82
2022-12-29T04:47:19.162Z,74.35
2022-12-29T04:49:55.740Z,73.78
2022-12-29T04:52:39.784Z,73.64
2022-12-29T04:55:10.448Z,73.75
2022-12-29T04:57:38.725Z,74.12
2022-12-29T05:00:09.880Z,73.47
2022-12-29T05:02:38.967Z,73.42
2022-12-29T05:05:09.577Z,74.21
2022-12-29T05:07:42.564Z,74.18
2022-12-29T05:10:11.661Z,73.88
2022-12-29T05:12:40.436Z,73.76
2022-12-29T05:15:13.041Z,73.40
2022-12-29T05:17:41.216Z,73.61
2022-12-29T05:20:12.369Z,73.14
2022-12-29T05:22:40.515Z,72.66
2022-12-29T05:25:09.775Z,72.96
2022-12-29T05:27:49.759Z,73.10
2022-12-29T05:30:23.457Z,72.55
2022-12-29T05:32:51.660Z,71.96
2022-12-29T05:35:21.405Z,72.03
2022-12-29T05:37:49.611Z,72.12
2022-12-29T05:40:17.813Z,72.45
2022-12-29T05:42:46.068Z,72.01
2022-12-29T05:45:30.508Z,72.32
2022-12-29T05:48:26.358Z,72.52
2022-12-29T05:51:34.066Z,72.34
2022-12-29T05:54:02.573Z,72.86
2022-12-29T05:56:30.602Z,72.61
2022-12-29T05:59:00.444Z,72.88
2022-12-29T06:01:28.502Z,73.17
2022-12-29T06:03:56.780Z,73.40
2022-12-29T06:06:24.820Z,73.23
2022-12-29T06:08:54.579Z,73.41
2022-12-29T06:11:22.926Z,73.64
2022-12-29T06:13:56.699Z,73.75
2022-12-29T06:16:25.948Z,74.44
2022-12-29T06:18:57.423Z,74.41
2022-12-29T06:21:25.376Z,73.67
2022-12-29T06:23:54.920Z,73.53
2022-12-29T06:26:22.921Z,73.62
2022-12-29T06:28:51.065Z,73.61
2022-12-29T06:31:19.088Z,73.88
2022-12-29T06:33:50.052Z,73.79
2022-12-29T06:36:18.490Z,73.48
2022-12-29T06:38:46.699Z,73.16
2022-12-29T06:41:16.033Z,72.92
2022-12-29T06:43:45.517Z,72.40
2022-12-29T06:46:30.618Z,72.36
2022-12-29T06:48:58.815Z,72.45
2022-12-29T06:51:26.759Z,72.23
2022-12-29T06:53:54.954Z,72.46
2022-12-29T06:56:24.278Z,71.54
2022-12-29T06:58:52.404Z,71.78
2022-12-29T07:01:20.417Z,71.94
2022-12-29T07:03:48.658Z,71.84
2022-12-29T07:06:16.789Z,71.12
2022-12-29T07:08:44.946Z,71.42
2022-12-29T07:11:12.881Z,71.33
2022-12-29T07:13:42.415Z,71.58
2022-12-29T07:16:11.398Z,71.36
2022-12-29T07:18:39.729Z,71.32
2022-12-29T07:21:07.722Z,70.98
2022-12-29T07:23:35.912Z,71.03
2022-12-29T07:26:05.977Z,70.80
2022-12-29T07:28:34.224Z,71.11
2022-12-29T07:31:03.755Z,70.79
2022-12-29T07:33:32.526Z,70.77
2022-12-29T07:36:00.864Z,70.99
2022-12-29T07:38:29.048Z,70.94
2022-12-29T07:40:59.767Z,71.47
2022-12-29T07:43:29.195Z,70.75
2022-12-29T07:46:56.512Z,70.80
2022-12-29T07:49:15.166Z,70.92
2022-12-29T07:51:43.106Z,70.58
2022-12-29T07:54:12.928Z,70.66
2022-12-29T07:56:41.334Z,71.09
2022-12-29T07:59:09.529Z,71.17
2022-12-29T08:01:38.874Z,71.03
2022-12-29T08:04:07.247Z,71.04
2022-12-29T08:06:35.220Z,70.83
2022-12-29T08:09:11.285Z,70.98
2022-12-29T08:11:43.825Z,70.15
2022-12-29T08:14:12.298Z,70.43
2022-12-29T08:16:50.906Z,70.89
2022-12-29T08:19:19.046Z,69.98
2022-12-29T08:21:47.021Z,70.44
2022-12-29T08:24:15.201Z,70.98
2022-12-29T08:26:43.186Z,70.52
2022-12-29T08:29:11.405Z,70.41
2022-12-29T08:31:39.595Z,70.79
2022-12-29T08:34:09.196Z,70.35
2022-12-29T08:36:37.131Z,70.38
2022-12-29T08:39:05.514Z,70.81
2022-12-29T08:41:33.463Z,70.05
2022-12-29T08:44:01.762Z,70.12
2022-12-29T08:46:29.753Z,70.82
2022-12-29T08:48:58.281Z,70.46
2022-12-29T08:51:27.530Z,70.51
2022-12-29T08:53:55.720Z,70.41
2022-12-29T08:56:24.645Z,70.17
2022-12-29T08:58:56.215Z,70.21
2022-12-29T09:01:25.636Z,70.41
2022-12-29T09:04:14.027Z,70.26
2022-12-29T09:06:44.791Z,70.29
2022-12-29T09:09:13.360Z,70.24
2022-12-29T09:11:41.344Z,70.22
2022-12-29T09:14:09.637Z,70.55
2022-12-29T09:16:38.152Z,70.29
2022-12-29T09:19:06.565Z,70.38
2022-12-29T09:21:34.618Z,70.03
2022-12-29T09:24:04.489Z,69.76
2022-12-29T09:26:32.426Z,68.93
2022-12-29T09:29:00.668Z,68.38
2022-12-29T09:31:28.649Z,67.97
2022-12-29T09:33:56.815Z,67.75
2022-12-29T09:36:24.795Z,68.32
2022-12-29T09:38:55.206Z,68.26
2022-12-29T09:41:29.106Z,68.63
2022-12-29T09:44:05.620Z,68.03
2022-12-29T09:46:37.402Z,67.75
2022-12-29T09:49:11.984Z,67.70
2022-12-29T09:51:41.855Z,67.45
2022-12-29T09:54:23.319Z,67.09
2022-12-29T09:56:54.664Z,67.28
2022-12-29T09:59:26.437Z,67.65
2022-12-29T10:01:59.795Z,66.97
2022-12-29T10:04:28.717Z,67.82
2022-12-29T10:07:30.636Z,68.01
2022-12-29T10:09:55.708Z,68.60
2022-12-29T10:12:32.124Z,68.77
2022-12-29T10:15:05.720Z,67.63
2022-12-29T10:17:38.511Z,67.82
2022-12-29T10:20:27.615Z,67.87
2022-12-29T10:23:07.274Z,68.48
2022-12-29T10:25:40.805Z,68.45
2022-12-29T10:28:19.395Z,68.69
2022-12-29T10:30:49.473Z,69.62
2022-12-29T10:33:21.596Z,69.74
2022-12-29T10:35:50.328Z,69.37
2022-12-29T10:38:24.794Z,69.16
2022-12-29T10:40:56.508Z,69.37
2022-12-29T10:43:27.859Z,70.48
2022-12-29T10:45:58.405Z,70.56
2022-12-29T10:48:31.985Z,70.74
2022-12-29T10:51:02.509Z,69.82
2022-12-29T10:53:37.249Z,69.48
2022-12-29T10:56:11.285Z,69.41
2022-12-29T10:58:44.661Z,68.81
2022-12-29T11:01:16.516Z,69.45
2022-12-29T11:04:01.593Z,69.21
2022-12-29T11:06:31.269Z,68.81
2022-12-29T11:09:00.743Z,68.12
2022-12-29T11:11:35.687Z,67.22
2022-12-29T11:14:14.255Z,66.49
2022-12-29T11:16:45.487Z,66.02
2022-12-29T11:19:23.031Z,65.38
2022-12-29T11:21:51.548Z,65.08
2022-12-29T11:24:24.815Z,64.23
2022-12-29T11:26:58.096Z,63.34
2022-12-29T11:29:30.229Z,63.66
2022-12-29T11:32:00.233Z,64.17
2022-12-29T11:34:33.685Z,64.21
2022-12-29T11:37:04.827Z,65.41
2022-12-29T11:39:36.419Z,65.46
2022-12-29T11:42:05.396Z,66.02
2022-12-29T11:44:38.901Z,65.73
2022-12-29T11:47:07.546Z,66.43
2022-12-29T11:49:35.542Z,66.68
2022-12-29T11:52:03.907Z,66.84
2022-12-29T11:54:33.862Z,66.81
2022-12-29T11:57:11.994Z,65.89
2022-12-29T11:59:43.290Z,66.50
2022-12-29T12:02:27.040Z,65.29
2022-12-29T12:04:59.067Z,65.93
2022-12-29T12:07:37.828Z,65.49
2022-12-29T12:10:08.557Z,64.55
2022-12-29T12:12:40.243Z,64.57
2022-12-29T12:15:15.792Z,64.39
2022-12-29T12:17:53.761Z,64.43
2022-12-29T12:20:24.194Z,66.30
2022-12-29T12:23:00.393Z,66.41
2022-12-29T12:25:31.742Z,66.95
2022-12-29T12:28:02.695Z,62.27
2022-12-29T12:30:38.256Z,60.88
2022-12-29T12:33:08.234Z,60.35
2022-12-29T12:35:44.361Z,62.26
2022-12-29T12:38:20.882Z,63.13
2022-12-29T12:40:59.165Z,64.24
2022-12-29T12:43:39.277Z,64.86
2022-12-29T12:46:29.992Z,66.46
2022-12-29T12:49:14.012Z,66.59
2022-12-29T12:51:50.035Z,67.24
2022-12-29T12:54:32.654Z,67.56
2022-12-29T12:57:10.532Z,67.81
2022-12-29T12:59:48.529Z,67.73
2022-12-29T13:02:33.689Z,67.86
2022-12-29T13:05:29.590Z,68.57
2022-12-29T13:08:09.024Z,67.37
2022-12-29T13:10:47.080Z,67.45
2022-12-29T13:13:34.726Z,66.16
2022-12-29T13:16:12.393Z,65.42
2022-12-29T13:18:50.721Z,65.28
2022-12-29T13:21:29.280Z,64.01
2022-12-29T13:24:03.169Z,65.13
2022-12-29T13:26:34.825Z,65.70
2022-12-29T13:29:08.643Z,65.11
2022-12-29T13:31:42.404Z,65.38
2022-12-29T13:34:19.063Z,65.90
2022-12-29T13:36:48.584Z,65.56
2022-12-29T13:39:21.396Z,66.18
2022-12-29T13:41:51.926Z,66.60
2022-12-29T13:44:23.706Z,67.79
2022-12-29T13:46:51.937Z,68.50
2022-12-29T13:49:22.829Z,68.52
2022-12-29T13:51:52.681Z,69.58
2022-12-29T13:54:29.067Z,69.58
2022-12-29T13:57:04.875Z,70.00
2022-12-29T13:59:41.846Z,70.22
2022-12-29T14:02:19.007Z,70.23
2022-12-29T14:05:00.216Z,71.23
2022-12-29T14:07:29.097Z,71.36
2022-12-29T14:09:58.452Z,72.02
2022-12-29T14:12:32.421Z,72.90
2022-12-29T14:15:16.335Z,73.45
2022-12-29T14:18:02.338Z,73.69
2022-12-29T14:20:31.958Z,73.13
2022-12-29T14:23:02.367Z,73.04
2022-12-29T14:25:59.339Z,72.70
2022-12-29T14:28:29.752Z,72.31
2022-12-29T14:30:59.190Z,72.14
2022-12-29T14:33:30.202Z,72.96
2022-12-29T14:36:22.799Z,74.13
2022-12-29T14:38:51.107Z,76.50
2022-12-29T14:41:25.752Z,77.93
2022-12-29T14:43:57.056Z,79.07
2022-12-29T14:46:26.489Z,79.11
2022-12-29T14:49:01.805Z,79.56
2022-12-29T14:51:33.911Z,80.12
2022-12-29T14:54:02.382Z,80.49
2022-12-29T14:56:32.200Z,80.01
2022-12-29T14:59:03.248Z,81.22
2022-12-29T15:01:42.199Z,81.39
2022-12-29T15:04:19.688Z,81.71
2022-12-29T15:06:51.865Z,82.20
2022-12-29T15:09:27.075Z,82.26
2022-12-29T15:11:57.069Z,82.64
2022-12-29T15:14:37.233Z,83.34
2022-12-29T15:17:12.662Z,83.89
2022-12-29T15:19:40.789Z,84.46
2022-12-29T15:22:11.412Z,84.49
2022-12-29T15:24:43.550Z,84.90
2022-12-29T15:27:15.269Z,84.65
2022-12-29T15:29:44.827Z,84.20
2022-12-29T15:32:20.245Z,84.45
2022-12-29T15:34:50.034Z,84.76
2022-12-29T15:37:23.075Z,85.02
2022-12-29T15:39:51.620Z,85.43
2022-12-29T15:42:31.905Z,86.12
2022-12-29T15:45:10.273Z,86.78
2022-12-29T15:47:39.054Z,87.18
2022-12-29T15:50:10.771Z,87.50
2022-12-29T15:52:41.157Z,87.42
2022-12-29T15:55:21.499Z,87.30
2022-12-29T15:57:49.421Z,87.03
2022-12-29T16:00:29.063Z,88.24
2022-12-29T16:02:59.488Z,88.14
2022-12-29T16:05:33.868Z,88.24
2022-12-29T16:08:03.625Z,88.69
2022-12-29T16:10:35.384Z,88.41
2022-12-29T16:13:05.355Z,89.27
2022-12-29T16:15:33.512Z,89.27
2022-12-29T16:18:01.639Z,90.31
2022-12-29T16:20:39.152Z,91.15
2022-12-29T16:23:18.973Z,91.08
2022-12-29T16:25:47.227Z,90.63
2022-12-29T16:28:19.903Z,90.95
2022-12-29T16:30:48.312Z,91.29
2022-12-29T16:33:37.642Z,91.11
2022-12-29T16:36:28.309Z,90.86
2022-12-29T16:39:29.224Z,88.98
2022-12-29T16:41:57.917Z,88.60
2022-12-29T16:44:27.774Z,89.29
2022-12-29T16:47:20.524Z,90.07
2022-12-29T16:49:54.388Z,90.14
2022-12-29T16:52:25.687Z,90.52
2022-12-29T16:54:56.967Z,90.65
2022-12-29T16:57:31.048Z,89.75
2022-12-29T17:00:01.696Z,90.13
2022-12-29T17:02:31.826Z,90.17
2022-12-29T17:04:59.895Z,90.47
2022-12-29T17:07:29.372Z,91.03
2022-12-29T17:09:58.783Z,91.76
2022-12-29T17:12:28.335Z,92.28
2022-12-29T17:14:57.227Z,92.82
2022-12-29T17:17:32.760Z,93.14
2022-12-29T17:20:03.896Z,93.57
2022-12-29T17:22:32.940Z,93.21
2022-12-29T17:25:03.587Z,92.74
2022-12-29T17:27:35.845Z,93.91
2022-12-29T17:30:07.167Z,93.93
2022-12-29T17:32:35.409Z,94.30
2022-12-29T17:35:03.910Z,94.49
2022-12-29T17:37:37.356Z,93.89
2022-12-29T17:40:08.820Z,94.63
2022-12-29T17:42:39.871Z,94.02
2022-12-29T17:45:13.390Z,93.82
2022-12-29T17:47:41.642Z,93.38
2022-12-29T17:50:12.947Z,94.31
2022-12-29T17:52:41.116Z,94.59
2022-12-29T17:55:16.697Z,94.26
2022-12-29T17:57:44.928Z,95.50
2022-12-29T18:00:16.740Z,94.70
2022-12-29T18:02:45.304Z,94.39
2022-12-29T18:05:19.265Z,93.93
2022-12-29T18:07:47.765Z,93.78
2022-12-29T18:10:17.153Z,93.98
2022-12-29T18:12:47.194Z,93.91
2022-12-29T18:15:20.576Z,95.31
2022-12-29T18:17:49.121Z,94.68
2022-12-29T18:20:17.735Z,94.22
2022-12-29T18:22:45.672Z,93.67
2022-12-29T18:25:24.646Z,94.05
2022-12-29T18:27:52.774Z,94.07
2022-12-29T18:30:20.969Z,94.31
2022-12-29T18:32:48.971Z,93.77
2022-12-29T18:35:19.851Z,93.84
2022-12-29T18:37:47.805Z,93.92
2022-12-29T18:40:16.160Z,93.54
2022-12-29T18:42:45.461Z,93.77
2022-12-29T18:45:17.057Z,93.47
2022-12-29T18:47:44.986Z,93.66
2022-12-29T18:50:13.610Z,93.50
2022-12-29T18:52:41.551Z,93.14
2022-12-29T18:55:13.434Z,93.23
2022-12-29T18:57:41.533Z,93.66
2022-12-29T19:00:13.649Z,93.25
2022-12-29T19:02:41.886Z,93.06
2022-12-29T19:05:20.344Z,92.35
2022-12-29T19:07:48.367Z,92.18
2022-12-29T19:10:16.823Z,91.82
2022-12-29T19:12:44.781Z,91.99
2022-12-29T19:15:23.520Z,91.75
2022-12-29T19:18:16.070Z,91.59
2022-12-29T19:20:41.692Z,91.26
2022-12-29T19:23:11.538Z,91.39
2022-12-29T19:25:40.479Z,91.22
2022-12-29T19:28:10.531Z,91.19
2022-12-29T19:30:40.024Z,91.17
2022-12-29T19:33:10.017Z,91.58
2022-12-29T19:35:38.674Z,91.20
2022-12-29T19:38:06.665Z,91.42
2022-12-29T19:40:34.999Z,91.46
2022-12-29T19:43:02.957Z,91.20
2022-12-29T19:45:31.406Z,90.82
2022-12-29T19:48:00.674Z,90.78
2022-12-29T19:50:28.832Z,90.79
2022-12-29T19:53:04.796Z,91.27
2022-12-29T19:55:33.896Z,91.76
2022-12-29T19:58:01.822Z,91.85
2022-12-29T20:00:31.063Z,92.85
2022-12-29T20:03:00.425Z,93.08
2022-12-29T20:05:28.914Z,93.30
2022-12-29T20:07:56.778Z,93.03
2022-12-29T20:10:24.937Z,92.85
2022-12-29T20:12:52.838Z,92.37
2022-12-29T20:15:21.033Z,93.15
2022-12-29T20:20:38.673Z,93.78
2022-12-29T20:23:06.627Z,94.07
2022-12-29T20:25:44.724Z,94.48
2022-12-29T20:28:15.340Z,94.46
2022-12-29T20:30:44.029Z,94.78
2022-12-29T20:33:11.945Z,94.63
2022-12-29T20:35:41.580Z,94.94
2022-12-29T20:38:09.471Z,95.13
2022-12-29T20:40:44.271Z,95.58
2022-12-29T20:43:15.723Z,95.57
2022-12-29T20:45:44.312Z,95.40
2022-12-29T20:48:12.424Z,95.63
2022-12-29T20:50:41.992Z,96.17
2022-12-29T20:53:11.526Z,96.25
2022-12-29T20:55:41.260Z,96.55
2022-12-29T20:58:25.612Z,96.91
2022-12-29T21:00:54.223Z,96.66
2022-12-29T21:03:22.589Z,96.58
2022-12-29T21:05:53.509Z,96.24
2022-12-29T21:08:22.035Z,96.36
2022-12-29T21:10:51.080Z,96.08
2022-12-29T21:13:19.023Z,96.74
2022-12-29T21:15:47.794Z,96.75
2022-12-29T21:18:15.730Z,96.86
2022-12-29T21:20:43.934Z,96.85
2022-12-29T21:23:13.358Z,96.80
2022-12-29T21:25:44.622Z,96.26
2022-12-29T21:28:13.057Z,96.54
2022-12-29T21:30:41.694Z,96.87
2022-12-29T21:33:09.919Z,96.94
2022-12-29T21:35:38.766Z,96.40
2022-12-29T21:38:07.239Z,96.20
2022-12-29T21:40:37.550Z,95.62
2022-12-29T21:43:05.951Z,95.74
2022-12-29T21:45:34.069Z,95.75
2022-12-29T21:48:20.964Z,95.63
2022-12-29T21:51:09.203Z,95.85
2022-12-29T21:53:40.449Z,95.97
2022-12-29T21:56:12.938Z,96.15
2022-12-29T21:59:01.326Z,95.87
2022-12-29T22:01:49.222Z,95.23
2022-12-29T22:04:36.465Z,94.59
2022-12-29T22:07:23.431Z,94.73
2022-12-29T22:10:09.281Z,94.80
2022-12-29T22:12:56.908Z,95.70
2022-12-29T22:15:24.909Z,95.68
2022-12-29T22:17:54.918Z,95.22
2022-12-29T22:20:24.604Z,94.74
2022-12-29T22:22:53.004Z,94.57
2022-12-29T22:25:21.222Z,95.13
2022-12-29T22:27:55.642Z,94.90
2022-12-29T22:30:27.327Z,94.72
2022-12-29T22:32:56.500Z,94.59
2022-12-29T22:35:24.737Z,94.86
2022-12-29T22:37:52.955Z,94.64
2022-12-29T22:40:21.132Z,94.35
2022-12-29T22:42:50.642Z,94.44
2022-12-29T22:45:18.836Z,94.29
2022-12-29T22:47:47.055Z,94.33
2022-12-29T22:50:14.979Z,95.01
2022-12-29T22:52:43.160Z,94.78
2022-12-29T22:55:11.179Z,95.08
2022-12-29T22:57:39.438Z,95.03
2022-12-29T23:00:10.248Z,95.82
2022-12-29T23:02:39.084Z,95.30
2022-12-29T23:05:07.670Z,95.70
2022-12-29T23:07:36.662Z,95.91
2022-12-29T23:10:05.697Z,95.91
2022-12-29T23:12:33.910Z,95.98
2022-12-29T23:15:01.907Z,96.11
2022-12-29T23:17:31.888Z,96.68
2022-12-29T23:19:59.783Z,97.21
2022-12-29T23:22:27.980Z,97.36
2022-12-29T23:24:55.893Z,97.29
2022-12-29T23:27:24.097Z,97.12
2022-12-29T23:29:52.017Z,97.12
2022-12-29T23:32:20.349Z,97.12
2022-12-29T23:34:49.650Z,97.31
2022-12-29T23:37:17.848Z,97.15
2022-12-29T23:39:45.734Z,96.80
2022-12-29T23:42:13.922Z,96.83
2022-12-29T23:44:41.854Z,96.45
2022-12-29T23:47:10.062Z,95.76
2022-12-29T23:49:38.010Z,95.74
2022-12-29T23:52:07.551Z,94.77
2022-12-29T23:54:35.448Z,94.00
2022-12-29T23:57:03.587Z,93.59
2022-12-29T23:59:31.495Z,93.64
